createdAt,value
2022-10-01T00:01:06.170Z,12.25
2022-10-01T00:03:36.803Z,9.38
2022-10-01T00:06:06.387Z,12.10
2022-10-01T00:08:33.809Z,8.30
2022-10-01T00:11:01.582Z,10.85
2022-10-01T00:13:30.306Z,10.73
2022-10-01T00:15:57.406Z,12.68
2022-10-01T00:18:23.962Z,14.18
2022-10-01T00:20:50.502Z,10.20
2022-10-01T00:23:17.096Z,10.73
2022-10-01T00:25:43.795Z,8.02
2022-10-01T00:28:12.074Z,9.20
2022-10-01T00:30:45.653Z,11.18
2022-10-01T00:33:12.204Z,8.30
2022-10-01T00:35:38.719Z,8.77
2022-10-01T00:38:05.244Z,9.65
2022-10-01T00:40:31.772Z,7.07
2022-10-01T00:42:58.299Z,9.25
2022-10-01T00:45:24.858Z,8.20
2022-10-01T00:47:57.972Z,8.27
2022-10-01T00:50:34.962Z,7.72
2022-10-01T00:53:06.307Z,8.40
2022-10-01T00:55:36.420Z,7.60
2022-10-01T00:58:04.949Z,8.75
2022-10-01T01:00:32.174Z,7.82
2022-10-01T01:02:58.799Z,7.93
2022-10-01T01:05:25.425Z,9.90
2022-10-01T01:07:53.622Z,9.32
2022-10-01T01:10:34.112Z,9.57
2022-10-01T01:13:13.232Z,9.05
2022-10-01T01:15:39.754Z,8.25
2022-10-01T01:18:36.607Z,8.95
2022-10-01T01:21:24.833Z,7.55
2022-10-01T01:24:19.023Z,8.98
2022-10-01T01:26:51.483Z,7.93
2022-10-01T01:29:39.903Z,6.00
2022-10-01T01:32:14.985Z,6.82
2022-10-01T01:34:46.218Z,7.65
2022-10-01T01:37:18.069Z,6.30
2022-10-01T01:39:50.189Z,6.47
2022-10-01T01:42:31.168Z,5.97
2022-10-01T01:45:00.967Z,6.03
2022-10-01T01:47:30.445Z,7.13
2022-10-01T01:49:58.481Z,7.20
2022-10-01T01:52:25.374Z,5.70
2022-10-01T01:54:52.331Z,7.63
2022-10-01T01:57:21.080Z,8.68
2022-10-01T01:59:47.725Z,5.80
2022-10-01T02:02:25.845Z,4.70
2022-10-01T02:05:01.009Z,4.07
2022-10-01T02:07:53.796Z,8.02
2022-10-01T02:10:37.096Z,9.07
2022-10-01T02:13:22.140Z,5.95
2022-10-01T02:16:30.522Z,5.47
2022-10-01T02:19:06.030Z,5.88
2022-10-01T02:21:40.096Z,5.22
2022-10-01T02:24:37.726Z,5.80
2022-10-01T02:27:11.320Z,5.50
2022-10-01T02:29:39.936Z,7.15
2022-10-01T02:32:08.235Z,4.90
2022-10-01T02:34:34.769Z,5.78
2022-10-01T02:37:06.266Z,8.77
2022-10-01T02:39:34.731Z,5.63
2022-10-01T02:42:04.073Z,6.70
2022-10-01T02:44:40.056Z,7.38
2022-10-01T02:47:11.978Z,5.53
2022-10-01T02:49:41.346Z,7.05
2022-10-01T02:52:13.874Z,6.13
2022-10-01T02:54:50.739Z,7.18
2022-10-01T02:57:27.574Z,6.30
2022-10-01T02:59:59.088Z,7.45
2022-10-01T03:02:31.505Z,6.35
2022-10-01T03:04:58.925Z,5.55
2022-10-01T03:07:27.716Z,6.47
2022-10-01T03:09:54.371Z,4.40
2022-10-01T03:12:21.290Z,4.35
2022-10-01T03:14:48.214Z,4.38
2022-10-01T03:17:15.658Z,6.13
2022-10-01T03:19:42.780Z,6.03
2022-10-01T03:22:11.576Z,6.28
2022-10-01T03:24:38.113Z,6.72
2022-10-01T03:27:05.174Z,6.03
2022-10-01T03:29:31.720Z,6.22
2022-10-01T03:31:58.291Z,6.53
2022-10-01T03:34:24.923Z,5.45
2022-10-01T03:36:54.389Z,7.10
2022-10-01T03:39:20.976Z,5.32
2022-10-01T03:41:47.472Z,6.22
2022-10-01T03:44:16.717Z,6.00
2022-10-01T03:46:43.843Z,5.72
2022-10-01T03:49:10.684Z,4.35
2022-10-01T03:51:40.574Z,4.00
2022-10-01T03:54:08.350Z,3.00
2022-10-01T03:56:35.782Z,5.18
2022-10-01T03:59:02.428Z,6.30
2022-10-01T04:01:29.110Z,9.68
2022-10-01T04:03:55.751Z,4.88
2022-10-01T04:06:22.780Z,5.03
2022-10-01T04:08:49.300Z,5.43
2022-10-01T04:11:15.833Z,6.03
2022-10-01T04:13:45.216Z,4.32
2022-10-01T04:16:11.833Z,5.70
2022-10-01T04:18:38.460Z,7.00
2022-10-01T04:21:05.131Z,5.82
2022-10-01T04:23:31.674Z,6.32
2022-10-01T04:26:02.393Z,4.78
2022-10-01T04:28:30.367Z,7.47
2022-10-01T04:31:17.477Z,4.90
2022-10-01T04:33:47.106Z,5.65
2022-10-01T04:36:13.751Z,5.43
2022-10-01T04:38:40.352Z,4.57
2022-10-01T04:41:09.740Z,5.03
2022-10-01T04:43:36.842Z,7.47
2022-10-01T04:46:03.410Z,5.38
2022-10-01T04:48:30.018Z,5.30
2022-10-01T04:50:56.569Z,4.22
2022-10-01T04:53:23.335Z,7.65
2022-10-01T04:55:49.865Z,6.30
2022-10-01T04:58:16.417Z,7.97
2022-10-01T05:00:45.939Z,5.63
2022-10-01T05:03:12.601Z,6.32
2022-10-01T05:05:39.108Z,6.03
2022-10-01T05:08:05.637Z,6.25
2022-10-01T05:10:32.294Z,6.93
2022-10-01T05:13:02.112Z,4.47
2022-10-01T05:15:29.834Z,5.55
2022-10-01T05:17:56.797Z,7.55
2022-10-01T05:20:27.748Z,5.78
2022-10-01T05:22:56.346Z,6.20
2022-10-01T05:25:23.642Z,7.70
2022-10-01T05:27:50.523Z,5.05
2022-10-01T05:30:24.184Z,5.65
2022-10-01T05:35:21.943Z,5.03
2022-10-01T05:37:52.495Z,7.50
2022-10-01T05:40:21.139Z,7.53
2022-10-01T05:42:48.003Z,5.88
2022-10-01T05:45:17.201Z,5.32
2022-10-01T05:47:44.757Z,7.05
2022-10-01T05:50:11.291Z,4.05
2022-10-01T05:52:38.434Z,5.28
2022-10-01T05:55:05.270Z,7.65
2022-10-01T05:57:31.871Z,6.03
2022-10-01T05:59:58.403Z,4.57
2022-10-01T06:02:25.216Z,4.90
2022-10-01T06:04:51.873Z,5.05
2022-10-01T06:07:18.445Z,6.43
2022-10-01T06:09:45.219Z,4.88
2022-10-01T06:12:13.656Z,5.30
2022-10-01T06:14:42.961Z,10.93
2022-10-01T06:17:09.526Z,6.05
2022-10-01T06:19:36.045Z,6.10
2022-10-01T06:22:02.579Z,5.43
2022-10-01T06:24:30.162Z,4.63
2022-10-01T06:26:57.126Z,5.75
2022-10-01T06:29:24.021Z,3.63
2022-10-01T06:31:51.417Z,4.70
2022-10-01T06:34:18.025Z,5.10
2022-10-01T06:36:44.560Z,8.10
2022-10-01T06:39:11.120Z,3.72
2022-10-01T06:41:37.756Z,4.35
2022-10-01T06:44:05.690Z,4.30
2022-10-01T06:46:35.329Z,4.93
2022-10-01T06:49:01.985Z,4.57
2022-10-01T06:51:47.196Z,3.58
2022-10-01T06:54:18.296Z,4.30
2022-10-01T06:56:44.885Z,4.22
2022-10-01T06:59:11.401Z,4.40
2022-10-01T07:01:38.379Z,4.00
2022-10-01T07:04:05.290Z,2.88
2022-10-01T07:06:32.575Z,4.32
2022-10-01T07:08:59.121Z,3.17
2022-10-01T07:11:27.148Z,4.38
2022-10-01T07:13:54.658Z,3.92
2022-10-01T07:16:21.495Z,2.45
2022-10-01T07:18:48.072Z,2.25
2022-10-01T07:21:14.597Z,2.83
2022-10-01T07:23:41.210Z,1.75
2022-10-01T07:26:09.150Z,1.98
2022-10-01T07:28:35.838Z,1.45
2022-10-01T07:31:09.654Z,1.40
2022-10-01T07:33:36.175Z,2.40
2022-10-01T07:36:05.050Z,3.17
2022-10-01T07:38:33.392Z,1.63
2022-10-01T07:41:02.491Z,2.13
2022-10-01T07:43:30.967Z,4.97
2022-10-01T07:45:58.265Z,6.65
2022-10-01T07:48:26.111Z,3.22
2022-10-01T07:50:52.899Z,2.47
2022-10-01T07:53:19.570Z,1.10
2022-10-01T07:55:46.626Z,2.38
2022-10-01T07:58:13.261Z,3.63
2022-10-01T08:00:39.942Z,1.25
2022-10-01T08:03:06.800Z,2.10
2022-10-01T08:05:35.830Z,2.05
2022-10-01T08:08:06.985Z,2.72
2022-10-01T08:10:36.421Z,1.88
2022-10-01T08:13:14.221Z,4.38
2022-10-01T08:15:45.747Z,5.40
2022-10-01T08:18:12.618Z,3.00
2022-10-01T08:20:39.602Z,2.05
2022-10-01T08:23:08.968Z,1.27
2022-10-01T08:25:35.881Z,2.97
2022-10-01T08:28:03.579Z,2.45
2022-10-01T08:30:30.812Z,1.70
2022-10-01T08:32:58.884Z,1.60
2022-10-01T08:35:26.366Z,2.22
2022-10-01T08:37:54.821Z,1.60
2022-10-01T08:40:21.881Z,1.02
2022-10-01T08:42:56.010Z,1.83
2022-10-01T08:45:43.201Z,1.10
2022-10-01T08:48:16.636Z,1.27
2022-10-01T08:50:54.962Z,2.17
2022-10-01T08:53:34.148Z,4.45
2022-10-01T08:56:03.654Z,2.65
2022-10-01T08:58:42.479Z,1.83
2022-10-01T09:01:11.339Z,0.57
2022-10-01T09:03:39.381Z,1.35
2022-10-01T09:06:18.127Z,0.95
2022-10-01T09:08:47.605Z,1.27
2022-10-01T09:11:53.236Z,1.25
2022-10-01T09:14:27.203Z,1.45
2022-10-01T09:17:12.333Z,0.93
2022-10-01T09:19:56.837Z,1.40
2022-10-01T09:22:41.534Z,1.48
2022-10-01T09:25:22.673Z,1.23
2022-10-01T09:27:51.476Z,0.73
2022-10-01T09:30:22.096Z,1.45
2022-10-01T09:33:11.747Z,0.63
2022-10-01T09:35:44.090Z,0.70
2022-10-01T09:38:20.481Z,1.60
2022-10-01T09:40:50.070Z,1.52
2022-10-01T09:43:19.918Z,1.98
2022-10-01T09:45:47.360Z,1.83
2022-10-01T09:48:22.319Z,2.67
2022-10-01T09:50:58.179Z,1.80
2022-10-01T09:54:06.086Z,1.77
2022-10-01T09:56:42.408Z,2.38
2022-10-01T09:59:17.285Z,2.28
2022-10-01T10:01:51.891Z,1.08
2022-10-01T10:04:21.302Z,2.00
2022-10-01T10:09:48.019Z,2.35
2022-10-01T10:12:28.318Z,1.77
2022-10-01T10:14:56.844Z,1.08
2022-10-01T10:17:26.914Z,2.88
2022-10-01T10:19:54.516Z,2.20
2022-10-01T10:22:27.015Z,2.10
2022-10-01T10:24:57.830Z,2.72
2022-10-01T10:27:29.115Z,1.90
2022-10-01T10:30:24.324Z,1.30
2022-10-01T10:32:51.998Z,1.05
2022-10-01T10:35:28.828Z,1.98
2022-10-01T10:37:57.566Z,0.90
2022-10-01T10:40:29.776Z,1.38
2022-10-01T10:42:58.638Z,1.08
2022-10-01T10:45:37.331Z,0.90
2022-10-01T10:48:11.812Z,1.83
2022-10-01T10:50:42.576Z,1.50
2022-10-01T10:53:22.236Z,1.97
2022-10-01T10:56:04.236Z,2.28
2022-10-01T10:58:42.282Z,1.70
2022-10-01T11:01:13.656Z,1.73
2022-10-01T11:03:57.348Z,1.83
2022-10-01T11:06:27.243Z,1.80
2022-10-01T11:09:04.837Z,2.92
2022-10-01T11:11:53.491Z,2.25
2022-10-01T11:14:31.975Z,1.48
2022-10-01T11:17:21.737Z,1.70
2022-10-01T11:20:18.599Z,1.20
2022-10-01T11:22:59.323Z,2.10
2022-10-01T11:26:03.671Z,1.45
2022-10-01T11:28:58.380Z,2.58
2022-10-01T11:32:19.347Z,1.25
2022-10-01T11:35:10.051Z,1.52
2022-10-01T11:37:49.002Z,1.05
2022-10-01T11:40:27.112Z,1.13
2022-10-01T11:43:00.151Z,1.15
2022-10-01T11:45:40.436Z,3.30
2022-10-01T11:48:13.433Z,3.58
2022-10-01T11:50:48.564Z,2.47
2022-10-01T11:53:30.825Z,3.20
2022-10-01T11:56:22.483Z,1.30
2022-10-01T11:59:13.700Z,1.65
2022-10-01T12:01:49.695Z,1.52
2022-10-01T12:04:28.092Z,3.08
2022-10-01T12:07:33.634Z,2.45
2022-10-01T12:10:22.087Z,1.88
2022-10-01T12:13:00.104Z,1.83
2022-10-01T12:15:34.052Z,1.88
2022-10-01T12:18:06.493Z,1.63
2022-10-01T12:20:40.830Z,1.88
2022-10-01T12:23:17.905Z,3.55
2022-10-01T12:25:55.364Z,1.35
2022-10-01T12:29:17.671Z,1.60
2022-10-01T12:34:42.448Z,3.55
2022-10-01T12:37:21.764Z,2.40
2022-10-01T12:40:03.833Z,2.50
2022-10-01T12:42:45.196Z,2.58
2022-10-01T12:45:23.703Z,4.88
2022-10-01T12:48:01.791Z,1.35
2022-10-01T12:51:12.486Z,1.48
2022-10-01T12:53:41.283Z,2.63
2022-10-01T12:56:30.921Z,1.75
2022-10-01T12:59:12.580Z,1.73
2022-10-01T13:01:48.157Z,0.52
2022-10-01T13:04:20.668Z,1.75
2022-10-01T13:07:05.602Z,1.45
2022-10-01T13:10:10.391Z,1.60
2022-10-01T13:12:56.470Z,0.65
2022-10-01T13:15:31.898Z,0.30
2022-10-01T13:18:25.014Z,1.63
2022-10-01T13:21:26.694Z,1.17
2022-10-01T13:24:03.340Z,2.03
2022-10-01T13:26:29.844Z,1.17
2022-10-01T13:29:00.692Z,0.60
2022-10-01T13:31:38.642Z,1.05
2022-10-01T13:34:39.896Z,0.45
2022-10-01T13:37:12.017Z,0.63
2022-10-01T13:39:42.102Z,0.82
2022-10-01T13:42:27.357Z,0.43
2022-10-01T13:44:57.939Z,0.77
2022-10-01T13:47:25.794Z,0.88
2022-10-01T13:49:56.382Z,0.65
2022-10-01T13:52:23.380Z,0.20
2022-10-01T13:54:52.706Z,0.30
2022-10-01T13:57:30.360Z,0.40
2022-10-01T14:00:12.335Z,0.77
2022-10-01T14:02:45.143Z,0.73
2022-10-01T14:05:17.471Z,0.52
2022-10-01T14:07:48.990Z,0.40
2022-10-01T14:10:16.466Z,0.95
2022-10-01T14:13:05.021Z,0.85
2022-10-01T14:15:59.592Z,0.30
2022-10-01T14:18:34.862Z,0.55
2022-10-01T14:21:43.225Z,0.98
2022-10-01T14:24:12.751Z,3.55
2022-10-01T14:27:20.163Z,11.52
2022-10-01T14:29:58.673Z,2.75
2022-10-01T14:32:51.014Z,0.40
2022-10-01T14:35:38.457Z,1.65
2022-10-01T14:38:12.726Z,0.50
2022-10-01T14:40:42.662Z,1.52
2022-10-01T14:43:23.420Z,1.40
2022-10-01T14:46:15.421Z,1.95
2022-10-01T14:48:42.606Z,7.07
2022-10-01T14:51:28.005Z,0.77
2022-10-01T14:53:57.826Z,0.90
2022-10-01T14:56:26.088Z,14.50
2022-10-01T14:58:58.118Z,1.00
2022-10-01T15:01:25.751Z,1.05
2022-10-01T15:03:52.983Z,2.85
2022-10-01T15:06:22.808Z,0.88
2022-10-01T15:08:52.259Z,12.82
2022-10-01T15:11:26.990Z,1.58
2022-10-01T15:13:57.452Z,0.80
2022-10-01T15:16:29.088Z,2.28
2022-10-01T15:19:03.411Z,1.33
2022-10-01T15:21:34.829Z,1.30
2022-10-01T15:24:04.262Z,2.40
2022-10-01T15:26:32.619Z,0.80
2022-10-01T15:29:12.295Z,1.75
2022-10-01T15:31:39.890Z,1.10
2022-10-01T15:34:10.983Z,2.67
2022-10-01T15:36:39.144Z,0.80
2022-10-01T15:39:18.328Z,0.60
2022-10-01T15:41:51.633Z,0.85
2022-10-01T15:44:38.542Z,2.20
2022-10-01T15:47:20.650Z,0.40
2022-10-01T15:50:00.917Z,0.50
2022-10-01T15:52:48.464Z,1.23
2022-10-01T15:55:17.711Z,0.30
2022-10-01T15:57:48.196Z,0.93
2022-10-01T16:00:27.191Z,0.40
2022-10-01T16:02:56.248Z,0.57
2022-10-01T16:05:26.200Z,1.00
2022-10-01T16:07:58.474Z,0.80
2022-10-01T16:10:42.088Z,0.60
2022-10-01T16:13:43.213Z,0.73
2022-10-01T16:16:12.926Z,0.60
2022-10-01T16:18:40.558Z,0.55
2022-10-01T16:21:10.644Z,4.65
2022-10-01T16:23:37.183Z,0.43
2022-10-01T16:26:32.653Z,0.90
2022-10-01T16:29:19.403Z,1.48
2022-10-01T16:31:46.080Z,1.30
2022-10-01T16:34:14.997Z,1.50
2022-10-01T16:36:42.328Z,1.05
2022-10-01T16:39:13.720Z,2.55
2022-10-01T16:41:41.270Z,1.05
2022-10-01T16:44:12.685Z,1.83
2022-10-01T16:46:40.444Z,1.92
2022-10-01T16:49:14.543Z,1.88
2022-10-01T16:51:42.349Z,1.10
2022-10-01T16:54:24.540Z,1.20
2022-10-01T16:56:52.351Z,1.02
2022-10-01T16:59:22.676Z,1.27
2022-10-01T17:01:53.534Z,1.52
2022-10-01T17:04:20.696Z,1.58
2022-10-01T17:06:48.068Z,1.35
2022-10-01T17:09:14.663Z,2.38
2022-10-01T17:11:43.425Z,0.93
2022-10-01T17:14:16.672Z,0.43
2022-10-01T17:16:43.842Z,0.57
2022-10-01T17:19:12.536Z,0.57
2022-10-01T17:21:39.426Z,1.00
2022-10-01T17:24:06.321Z,0.80
2022-10-01T17:26:36.002Z,0.52
2022-10-01T17:29:02.703Z,0.50
2022-10-01T17:31:30.649Z,0.73
2022-10-01T17:33:57.735Z,2.83
2022-10-01T17:36:24.258Z,0.35
2022-10-01T17:38:50.819Z,0.60
2022-10-01T17:41:17.390Z,1.27
2022-10-01T17:43:43.952Z,0.43
2022-10-01T17:46:10.589Z,1.40
2022-10-01T17:48:37.249Z,0.40
2022-10-01T17:51:09.218Z,1.02
2022-10-01T17:53:42.238Z,0.43
2022-10-01T17:56:14.318Z,0.50
2022-10-01T18:01:17.065Z,0.82
2022-10-01T18:03:43.780Z,1.60
2022-10-01T18:06:14.278Z,4.00
2022-10-01T18:08:54.594Z,1.05
2022-10-01T18:11:22.596Z,0.93
2022-10-01T18:13:50.847Z,0.57
2022-10-01T18:16:19.441Z,4.65
2022-10-01T18:21:33.523Z,1.30
2022-10-01T18:24:04.161Z,4.13
2022-10-01T18:26:32.321Z,4.00
2022-10-01T18:28:59.070Z,1.80
2022-10-01T18:31:29.159Z,1.25
2022-10-01T18:33:58.091Z,6.10
2022-10-01T18:36:58.844Z,5.07
2022-10-01T18:39:45.169Z,4.93
2022-10-01T18:42:49.446Z,4.43
2022-10-01T18:45:51.055Z,1.50
2022-10-01T18:48:32.924Z,5.55
2022-10-01T18:51:24.358Z,1.30
2022-10-01T18:53:58.363Z,1.40
2022-10-01T18:56:33.909Z,4.72
2022-10-01T18:59:00.637Z,1.08
2022-10-01T19:01:48.943Z,2.80
2022-10-01T19:04:38.743Z,0.73
2022-10-01T19:07:23.435Z,0.55
2022-10-01T19:10:13.220Z,0.80
2022-10-01T19:13:13.822Z,0.50
2022-10-01T19:15:48.219Z,1.08
2022-10-01T19:18:40.321Z,1.63
2022-10-01T19:21:12.837Z,1.15
2022-10-01T19:24:01.207Z,1.20
2022-10-01T19:26:40.046Z,2.08
2022-10-01T19:29:25.276Z,4.15
2022-10-01T19:32:00.106Z,4.13
2022-10-01T19:34:41.955Z,4.57
2022-10-01T19:37:22.857Z,0.60
2022-10-01T19:39:51.537Z,1.13
2022-10-01T19:42:23.429Z,0.57
2022-10-01T19:45:03.066Z,0.73
2022-10-01T19:47:41.045Z,0.63
2022-10-01T19:50:25.030Z,0.70
2022-10-01T19:52:55.604Z,0.55
2022-10-01T19:55:24.244Z,2.17
2022-10-01T19:57:51.705Z,0.32
2022-10-01T20:00:21.716Z,2.03
2022-10-01T20:03:11.097Z,1.55
2022-10-01T20:05:53.025Z,0.65
2022-10-01T20:08:39.282Z,0.60
2022-10-01T20:11:24.781Z,0.30
2022-10-01T20:13:57.077Z,0.85
2022-10-01T20:16:47.237Z,0.47
2022-10-01T20:19:29.736Z,0.75
2022-10-01T20:22:22.086Z,0.38
2022-10-01T20:24:58.900Z,1.60
2022-10-01T20:27:51.550Z,0.65
2022-10-01T20:30:20.422Z,0.93
2022-10-01T20:33:07.966Z,0.10
2022-10-01T20:36:02.577Z,0.20
2022-10-01T20:38:36.496Z,0.20
2022-10-01T20:41:11.979Z,0.13
2022-10-01T20:44:11.675Z,3.00
2022-10-01T20:46:54.605Z,1.60
2022-10-01T20:49:36.723Z,0.47
2022-10-01T20:52:37.812Z,12.13
2022-10-01T20:55:15.413Z,1.13
2022-10-01T20:57:47.234Z,0.43
2022-10-01T21:00:19.439Z,1.02
2022-10-01T21:02:50.994Z,0.80
2022-10-01T21:07:58.980Z,3.25
2022-10-01T21:10:34.752Z,0.30
2022-10-01T21:13:15.085Z,0.20
2022-10-01T21:16:13.294Z,0.95
2022-10-01T21:18:46.043Z,1.52
2022-10-01T21:21:37.507Z,0.50
2022-10-01T21:24:25.971Z,0.93
2022-10-01T21:27:20.580Z,0.43
2022-10-01T21:30:08.512Z,0.17
2022-10-01T21:33:00.105Z,0.20
2022-10-01T21:35:50.576Z,0.10
2022-10-01T21:38:28.406Z,0.03
2022-10-01T21:41:26.493Z,0.28
2022-10-01T21:44:34.721Z,1.58
2022-10-01T21:47:10.537Z,2.47
2022-10-01T21:49:52.203Z,0.15
2022-10-01T21:56:00.594Z,0.15
2022-10-01T21:59:04.284Z,0.50
2022-10-01T22:01:35.361Z,0.45
2022-10-01T22:04:20.926Z,1.00
2022-10-01T22:06:59.167Z,0.52
2022-10-01T22:09:48.501Z,0.30
2022-10-01T22:12:15.337Z,0.17
2022-10-01T22:14:44.997Z,0.45
2022-10-01T22:17:19.884Z,0.10
2022-10-01T22:19:51.002Z,0.20
2022-10-01T22:22:30.007Z,0.60
2022-10-01T22:25:00.221Z,0.25
2022-10-01T22:27:33.556Z,0.65
2022-10-01T22:30:09.181Z,0.50
2022-10-01T22:32:58.340Z,0.93
2022-10-01T22:35:30.955Z,3.17
2022-10-01T22:38:05.422Z,0.52
2022-10-01T22:40:42.074Z,0.35
2022-10-01T22:43:11.391Z,0.73
2022-10-01T22:45:46.480Z,1.00
2022-10-01T22:48:33.929Z,3.08
2022-10-01T22:51:45.537Z,1.15
2022-10-01T22:54:39.845Z,3.17
2022-10-01T22:57:16.869Z,1.77
2022-10-01T22:59:47.587Z,1.85
2022-10-01T23:02:22.929Z,0.60
2022-10-01T23:05:13.404Z,1.38
2022-10-01T23:07:53.136Z,1.95
2022-10-01T23:10:23.994Z,2.08
2022-10-01T23:12:50.686Z,3.42
2022-10-01T23:15:26.454Z,2.03
2022-10-01T23:18:24.640Z,1.23
2022-10-01T23:20:54.405Z,1.85
2022-10-01T23:23:20.916Z,1.73
2022-10-01T23:25:56.600Z,3.42
2022-10-01T23:28:46.801Z,1.85
2022-10-01T23:31:22.759Z,1.23
2022-10-01T23:34:30.908Z,2.05
2022-10-01T23:37:20.984Z,2.03
2022-10-01T23:40:09.396Z,2.97
2022-10-01T23:42:35.953Z,1.90
2022-10-01T23:45:15.260Z,0.50
2022-10-01T23:47:56.968Z,1.63
2022-10-01T23:53:19.743Z,2.45
2022-10-01T23:56:43.103Z,1.75
2022-10-01T23:59:31.671Z,2.63
